sensor_id;sensor_type;location;lat;lon;timestamp;pressure;altitude;pressure_sealevel;temperature;humidity
19108;BME280;9686;48.832;9.126;2023-06-22T00:02:21;98244.97;;;22.00;nan
19108;BME280;9686;48.832;9.126;2023-06-22T00:04:47;98253.41;;;22.08;nan
19108;BME280;9686;48.832;9.126;2023-06-22T00:07:12;98244.38;;;22.12;nan
19108;BME280;9686;48.832;9.126;2023-06-22T00:09:37;98247.78;;;21.97;nan
19108;BME280;9686;48.832;9.126;2023-06-22T00:12:03;98249.75;;;21.93;nan
19108;BME280;9686;48.832;9.126;2023-06-22T00:14:29;98237.88;;;22.00;nan
19108;BME280;9686;48.832;9.126;2023-06-22T00:16:54;98239.59;;;22.01;nan
19108;BME280;9686;48.832;9.126;2023-06-22T00:19:24;98242.63;;;21.94;nan
19108;BME280;9686;48.832;9.126;2023-06-22T00:21:52;98240.44;;;22.02;nan
19108;BME280;9686;48.832;9.126;2023-06-22T00:24:18;98253.78;;;21.83;nan
19108;BME280;9686;48.832;9.126;2023-06-22T00:26:44;98250.53;;;21.95;nan
19108;BME280;9686;48.832;9.126;2023-06-22T00:29:09;98251.22;;;21.99;nan
19108;BME280;9686;48.832;9.126;2023-06-22T00:31:35;98237.50;;;21.91;nan
19108;BME280;9686;48.832;9.126;2023-06-22T00:34:00;98234.91;;;21.89;nan
19108;BME280;9686;48.832;9.126;2023-06-22T00:36:25;98247.69;;;21.81;nan
19108;BME280;9686;48.832;9.126;2023-06-22T00:38:51;98243.09;;;21.84;nan
19108;BME280;9686;48.832;9.126;2023-06-22T00:41:17;98232.44;;;21.86;nan
19108;BME280;9686;48.832;9.126;2023-06-22T00:43:42;98231.53;;;21.85;nan
19108;BME280;9686;48.832;9.126;2023-06-22T00:46:08;98235.38;;;21.80;nan
19108;BME280;9686;48.832;9.126;2023-06-22T00:48:33;98230.00;;;21.64;nan
19108;BME280;9686;48.832;9.126;2023-06-22T00:50:59;98247.41;;;21.70;nan
19108;BME280;9686;48.832;9.126;2023-06-22T00:53:25;98270.97;;;21.76;nan
19108;BME280;9686;48.832;9.126;2023-06-22T00:55:50;98283.06;;;21.81;nan
19108;BME280;9686;48.832;9.126;2023-06-22T00:58:19;98262.69;;;21.82;nan
19108;BME280;9686;48.832;9.126;2023-06-22T01:00:47;98254.88;;;21.79;nan
19108;BME280;9686;48.832;9.126;2023-06-22T01:03:12;98293.47;;;21.86;nan
19108;BME280;9686;48.832;9.126;2023-06-22T01:05:38;98327.25;;;21.82;nan
19108;BME280;9686;48.832;9.126;2023-06-22T01:08:33;98304.13;;;21.84;nan
19108;BME280;9686;48.832;9.126;2023-06-22T01:11:08;98273.16;;;21.85;nan
19108;BME280;9686;48.832;9.126;2023-06-22T01:16:20;98295.41;;;21.82;nan
19108;BME280;9686;48.832;9.126;2023-06-22T01:18:47;98279.88;;;21.75;nan
19108;BME280;9686;48.832;9.126;2023-06-22T01:21:18;98282.34;;;21.78;nan
19108;BME280;9686;48.832;9.126;2023-06-22T01:26:28;98273.69;;;21.74;nan
19108;BME280;9686;48.832;9.126;2023-06-22T01:28:56;98272.91;;;21.72;nan
19108;BME280;9686;48.832;9.126;2023-06-22T01:31:26;98276.81;;;21.82;nan
19108;BME280;9686;48.832;9.126;2023-06-22T01:34:01;98280.41;;;21.81;nan
19108;BME280;9686;48.832;9.126;2023-06-22T01:36:28;98272.13;;;21.70;nan
19108;BME280;9686;48.832;9.126;2023-06-22T01:38:56;98260.81;;;21.67;nan
19108;BME280;9686;48.832;9.126;2023-06-22T01:41:25;98269.72;;;21.66;nan
19108;BME280;9686;48.832;9.126;2023-06-22T01:43:51;98278.88;;;21.59;nan
19108;BME280;9686;48.832;9.126;2023-06-22T01:46:18;98279.63;;;21.62;nan
19108;BME280;9686;48.832;9.126;2023-06-22T01:48:45;98267.66;;;21.53;nan
19108;BME280;9686;48.832;9.126;2023-06-22T01:51:10;98269.09;;;21.61;nan
19108;BME280;9686;48.832;9.126;2023-06-22T01:53:36;98275.19;;;21.80;nan
19108;BME280;9686;48.832;9.126;2023-06-22T01:56:01;98270.50;;;21.68;nan
19108;BME280;9686;48.832;9.126;2023-06-22T01:58:27;98278.09;;;21.57;nan
19108;BME280;9686;48.832;9.126;2023-06-22T02:01:11;98286.53;;;21.47;nan
19108;BME280;9686;48.832;9.126;2023-06-22T02:03:42;98282.63;;;21.54;nan
19108;BME280;9686;48.832;9.126;2023-06-22T02:06:19;98279.34;;;21.49;nan
19108;BME280;9686;48.832;9.126;2023-06-22T02:08:49;98290.00;;;21.31;nan
19108;BME280;9686;48.832;9.126;2023-06-22T02:11:18;98282.78;;;21.34;nan
19108;BME280;9686;48.832;9.126;2023-06-22T02:13:45;98280.53;;;21.25;nan
19108;BME280;9686;48.832;9.126;2023-06-22T02:16:11;98287.41;;;21.29;nan
19108;BME280;9686;48.832;9.126;2023-06-22T02:18:37;98294.94;;;21.38;nan
19108;BME280;9686;48.832;9.126;2023-06-22T02:21:03;98289.22;;;21.29;nan
19108;BME280;9686;48.832;9.126;2023-06-22T02:23:28;98292.66;;;21.12;nan
19108;BME280;9686;48.832;9.126;2023-06-22T02:25:53;98300.00;;;21.05;nan
19108;BME280;9686;48.832;9.126;2023-06-22T02:28:19;98286.81;;;21.22;nan
19108;BME280;9686;48.832;9.126;2023-06-22T02:30:44;98288.06;;;21.15;nan
19108;BME280;9686;48.832;9.126;2023-06-22T02:33:09;98278.00;;;21.03;nan
19108;BME280;9686;48.832;9.126;2023-06-22T02:35:35;98279.66;;;21.06;nan
19108;BME280;9686;48.832;9.126;2023-06-22T02:38:01;98271.28;;;20.96;nan
19108;BME280;9686;48.832;9.126;2023-06-22T02:40:28;98268.06;;;20.89;nan
19108;BME280;9686;48.832;9.126;2023-06-22T02:42:54;98268.00;;;20.91;nan
19108;BME280;9686;48.832;9.126;2023-06-22T02:45:20;98265.72;;;20.83;nan
19108;BME280;9686;48.832;9.126;2023-06-22T02:47:45;98269.00;;;20.88;nan
19108;BME280;9686;48.832;9.126;2023-06-22T02:50:10;98266.00;;;20.96;nan
19108;BME280;9686;48.832;9.126;2023-06-22T02:52:36;98258.91;;;20.97;nan
19108;BME280;9686;48.832;9.126;2023-06-22T02:55:01;98252.31;;;20.86;nan
19108;BME280;9686;48.832;9.126;2023-06-22T02:57:27;98256.53;;;20.72;nan
19108;BME280;9686;48.832;9.126;2023-06-22T02:59:52;98265.34;;;20.72;nan
19108;BME280;9686;48.832;9.126;2023-06-22T03:02:17;98265.41;;;20.71;nan
19108;BME280;9686;48.832;9.126;2023-06-22T03:04:46;98259.88;;;20.75;nan
19108;BME280;9686;48.832;9.126;2023-06-22T03:07:14;98252.41;;;20.85;nan
19108;BME280;9686;48.832;9.126;2023-06-22T03:09:39;98251.53;;;20.84;nan
19108;BME280;9686;48.832;9.126;2023-06-22T03:12:04;98247.28;;;20.80;nan
19108;BME280;9686;48.832;9.126;2023-06-22T03:14:30;98255.59;;;20.73;nan
19108;BME280;9686;48.832;9.126;2023-06-22T03:16:55;98249.38;;;20.74;nan
19108;BME280;9686;48.832;9.126;2023-06-22T03:19:26;98240.41;;;20.76;nan
19108;BME280;9686;48.832;9.126;2023-06-22T03:21:53;98253.38;;;20.63;nan
19108;BME280;9686;48.832;9.126;2023-06-22T03:24:18;98254.75;;;20.72;nan
19108;BME280;9686;48.832;9.126;2023-06-22T03:26:44;98246.78;;;20.72;nan
19108;BME280;9686;48.832;9.126;2023-06-22T03:29:11;98250.94;;;20.59;nan
19108;BME280;9686;48.832;9.126;2023-06-22T03:31:36;98251.38;;;20.69;nan
19108;BME280;9686;48.832;9.126;2023-06-22T03:34:02;98246.16;;;20.67;nan
19108;BME280;9686;48.832;9.126;2023-06-22T03:36:27;98243.78;;;20.61;nan
19108;BME280;9686;48.832;9.126;2023-06-22T03:38:52;98252.53;;;20.63;nan
19108;BME280;9686;48.832;9.126;2023-06-22T03:41:18;98245.84;;;20.73;nan
19108;BME280;9686;48.832;9.126;2023-06-22T03:43:43;98245.06;;;20.71;nan
19108;BME280;9686;48.832;9.126;2023-06-22T03:46:08;98238.34;;;20.64;nan
19108;BME280;9686;48.832;9.126;2023-06-22T03:48:34;98241.84;;;20.65;nan
19108;BME280;9686;48.832;9.126;2023-06-22T03:50:59;98244.56;;;20.63;nan
19108;BME280;9686;48.832;9.126;2023-06-22T03:53:25;98231.81;;;20.52;nan
19108;BME280;9686;48.832;9.126;2023-06-22T03:55:51;98236.47;;;20.47;nan
19108;BME280;9686;48.832;9.126;2023-06-22T03:58:20;98238.31;;;20.45;nan
19108;BME280;9686;48.832;9.126;2023-06-22T04:00:46;98232.16;;;20.45;nan
19108;BME280;9686;48.832;9.126;2023-06-22T04:03:12;98240.28;;;20.60;nan
19108;BME280;9686;48.832;9.126;2023-06-22T04:05:38;98238.97;;;20.50;nan
19108;BME280;9686;48.832;9.126;2023-06-22T04:08:04;98238.50;;;20.61;nan
19108;BME280;9686;48.832;9.126;2023-06-22T04:10:30;98240.34;;;20.59;nan
19108;BME280;9686;48.832;9.126;2023-06-22T04:12:55;98234.19;;;20.58;nan
19108;BME280;9686;48.832;9.126;2023-06-22T04:15:20;98231.47;;;20.60;nan
19108;BME280;9686;48.832;9.126;2023-06-22T04:17:45;98226.88;;;20.63;nan
19108;BME280;9686;48.832;9.126;2023-06-22T04:20:11;98234.63;;;20.68;nan
19108;BME280;9686;48.832;9.126;2023-06-22T04:22:36;98235.63;;;20.66;nan
19108;BME280;9686;48.832;9.126;2023-06-22T04:25:01;98226.53;;;20.71;nan
19108;BME280;9686;48.832;9.126;2023-06-22T04:27:27;98227.69;;;20.84;nan
19108;BME280;9686;48.832;9.126;2023-06-22T04:29:52;98230.44;;;20.81;nan
19108;BME280;9686;48.832;9.126;2023-06-22T04:32:17;98225.91;;;20.85;nan
19108;BME280;9686;48.832;9.126;2023-06-22T04:34:43;98222.25;;;20.87;nan
19108;BME280;9686;48.832;9.126;2023-06-22T04:37:09;98223.06;;;21.07;nan
19108;BME280;9686;48.832;9.126;2023-06-22T04:39:34;98213.47;;;21.04;nan
19108;BME280;9686;48.832;9.126;2023-06-22T04:41:59;98211.16;;;21.15;nan
19108;BME280;9686;48.832;9.126;2023-06-22T04:44:25;98207.59;;;21.16;nan
19108;BME280;9686;48.832;9.126;2023-06-22T04:46:53;98207.28;;;21.22;nan
19108;BME280;9686;48.832;9.126;2023-06-22T04:49:20;98213.44;;;21.23;nan
19108;BME280;9686;48.832;9.126;2023-06-22T04:51:47;98202.56;;;21.29;nan
19108;BME280;9686;48.832;9.126;2023-06-22T04:54:12;98191.78;;;21.32;nan
19108;BME280;9686;48.832;9.126;2023-06-22T04:56:38;98187.13;;;21.37;nan
19108;BME280;9686;48.832;9.126;2023-06-22T04:59:06;98189.41;;;21.45;nan
19108;BME280;9686;48.832;9.126;2023-06-22T05:01:31;98184.63;;;21.51;nan
19108;BME280;9686;48.832;9.126;2023-06-22T05:03:57;98186.03;;;21.59;nan
19108;BME280;9686;48.832;9.126;2023-06-22T05:06:23;98177.94;;;21.62;nan
19108;BME280;9686;48.832;9.126;2023-06-22T05:08:55;98177.31;;;21.74;nan
19108;BME280;9686;48.832;9.126;2023-06-22T05:11:27;98185.88;;;21.79;nan
19108;BME280;9686;48.832;9.126;2023-06-22T05:13:53;98178.16;;;21.92;nan
19108;BME280;9686;48.832;9.126;2023-06-22T05:16:19;98174.41;;;21.96;nan
19108;BME280;9686;48.832;9.126;2023-06-22T05:18:52;98177.03;;;21.96;nan
19108;BME280;9686;48.832;9.126;2023-06-22T05:21:22;98168.53;;;22.06;nan
19108;BME280;9686;48.832;9.126;2023-06-22T05:23:48;98171.88;;;22.10;nan
19108;BME280;9686;48.832;9.126;2023-06-22T05:26:13;98162.69;;;22.17;nan
19108;BME280;9686;48.832;9.126;2023-06-22T05:28:38;98155.56;;;22.18;nan
19108;BME280;9686;48.832;9.126;2023-06-22T05:31:03;98151.81;;;22.22;nan
19108;BME280;9686;48.832;9.126;2023-06-22T05:33:29;98152.22;;;22.30;nan
19108;BME280;9686;48.832;9.126;2023-06-22T05:35:54;98145.13;;;22.30;nan
19108;BME280;9686;48.832;9.126;2023-06-22T05:38:19;98152.84;;;22.35;nan
19108;BME280;9686;48.832;9.126;2023-06-22T05:40:45;98155.78;;;22.46;nan
19108;BME280;9686;48.832;9.126;2023-06-22T05:43:10;98149.78;;;22.42;nan
19108;BME280;9686;48.832;9.126;2023-06-22T05:45:35;98148.56;;;22.48;nan
19108;BME280;9686;48.832;9.126;2023-06-22T05:48:00;98155.53;;;22.51;nan
19108;BME280;9686;48.832;9.126;2023-06-22T05:50:26;98156.03;;;22.57;nan
19108;BME280;9686;48.832;9.126;2023-06-22T05:52:52;98147.31;;;22.71;nan
19108;BME280;9686;48.832;9.126;2023-06-22T05:55:17;98145.69;;;22.68;nan
19108;BME280;9686;48.832;9.126;2023-06-22T05:57:44;98131.00;;;22.61;nan
19108;BME280;9686;48.832;9.126;2023-06-22T06:00:09;98143.34;;;22.62;nan
19108;BME280;9686;48.832;9.126;2023-06-22T06:02:36;98142.16;;;22.68;nan
19108;BME280;9686;48.832;9.126;2023-06-22T06:05:02;98144.56;;;22.72;nan
19108;BME280;9686;48.832;9.126;2023-06-22T06:07:28;98140.00;;;22.74;nan
19108;BME280;9686;48.832;9.126;2023-06-22T06:09:54;98135.47;;;22.76;nan
19108;BME280;9686;48.832;9.126;2023-06-22T06:12:19;98131.19;;;22.90;nan
19108;BME280;9686;48.832;9.126;2023-06-22T06:14:44;98128.13;;;22.82;nan
19108;BME280;9686;48.832;9.126;2023-06-22T06:17:09;98126.22;;;22.84;nan
19108;BME280;9686;48.832;9.126;2023-06-22T06:19:35;98133.44;;;22.97;nan
19108;BME280;9686;48.832;9.126;2023-06-22T06:22:00;98128.00;;;22.99;nan
19108;BME280;9686;48.832;9.126;2023-06-22T06:24:26;98115.31;;;23.04;nan
19108;BME280;9686;48.832;9.126;2023-06-22T06:26:51;98119.59;;;23.06;nan
19108;BME280;9686;48.832;9.126;2023-06-22T06:29:16;98114.75;;;23.13;nan
19108;BME280;9686;48.832;9.126;2023-06-22T06:31:42;98113.22;;;23.25;nan
19108;BME280;9686;48.832;9.126;2023-06-22T06:34:07;98113.78;;;23.30;nan
19108;BME280;9686;48.832;9.126;2023-06-22T06:36:32;98111.34;;;23.41;nan
19108;BME280;9686;48.832;9.126;2023-06-22T06:38:58;98120.09;;;23.43;nan
19108;BME280;9686;48.832;9.126;2023-06-22T06:41:23;98122.50;;;23.48;nan
19108;BME280;9686;48.832;9.126;2023-06-22T06:43:48;98129.72;;;23.46;nan
19108;BME280;9686;48.832;9.126;2023-06-22T06:46:14;98116.06;;;23.66;nan
19108;BME280;9686;48.832;9.126;2023-06-22T06:48:39;98126.63;;;23.67;nan
19108;BME280;9686;48.832;9.126;2023-06-22T06:51:05;98122.38;;;23.79;nan
19108;BME280;9686;48.832;9.126;2023-06-22T06:53:30;98115.06;;;23.83;nan
19108;BME280;9686;48.832;9.126;2023-06-22T06:55:56;98112.78;;;23.91;nan
19108;BME280;9686;48.832;9.126;2023-06-22T06:58:22;98112.88;;;24.04;nan
19108;BME280;9686;48.832;9.126;2023-06-22T07:00:48;98098.25;;;23.96;nan
19108;BME280;9686;48.832;9.126;2023-06-22T07:03:14;98101.66;;;23.98;nan
19108;BME280;9686;48.832;9.126;2023-06-22T07:05:39;98100.44;;;24.04;nan
19108;BME280;9686;48.832;9.126;2023-06-22T07:08:04;98096.63;;;24.08;nan
19108;BME280;9686;48.832;9.126;2023-06-22T07:10:30;98092.25;;;24.21;nan
19108;BME280;9686;48.832;9.126;2023-06-22T07:12:55;98079.69;;;24.23;nan
19108;BME280;9686;48.832;9.126;2023-06-22T07:15:22;98078.91;;;24.36;nan
19108;BME280;9686;48.832;9.126;2023-06-22T07:17:47;98079.13;;;24.33;nan
19108;BME280;9686;48.832;9.126;2023-06-22T07:20:12;98074.69;;;24.46;nan
19108;BME280;9686;48.832;9.126;2023-06-22T07:22:39;98074.69;;;24.46;nan
19108;BME280;9686;48.832;9.126;2023-06-22T07:25:05;98052.59;;;24.85;nan
19108;BME280;9686;48.832;9.126;2023-06-22T07:27:36;98048.97;;;24.86;nan
19108;BME280;9686;48.832;9.126;2023-06-22T07:30:04;98048.84;;;24.87;nan
19108;BME280;9686;48.832;9.126;2023-06-22T07:32:29;98043.75;;;24.97;nan
19108;BME280;9686;48.832;9.126;2023-06-22T07:34:54;98043.50;;;25.02;nan
19108;BME280;9686;48.832;9.126;2023-06-22T07:37:20;98039.56;;;25.07;nan
19108;BME280;9686;48.832;9.126;2023-06-22T07:39:45;98034.75;;;25.12;nan
19108;BME280;9686;48.832;9.126;2023-06-22T07:42:10;98022.94;;;25.29;nan
19108;BME280;9686;48.832;9.126;2023-06-22T07:44:36;98017.59;;;25.42;nan
19108;BME280;9686;48.832;9.126;2023-06-22T07:47:01;98020.50;;;25.90;nan
19108;BME280;9686;48.832;9.126;2023-06-22T07:49:27;98007.81;;;25.68;nan
19108;BME280;9686;48.832;9.126;2023-06-22T07:51:53;98006.50;;;25.61;nan
19108;BME280;9686;48.832;9.126;2023-06-22T07:54:18;98005.88;;;25.70;nan
19108;BME280;9686;48.832;9.126;2023-06-22T07:56:43;98000.22;;;25.74;nan
19108;BME280;9686;48.832;9.126;2023-06-22T07:59:09;98002.69;;;25.77;nan
19108;BME280;9686;48.832;9.126;2023-06-22T08:01:34;98006.75;;;25.83;nan
19108;BME280;9686;48.832;9.126;2023-06-22T08:03:59;98005.44;;;25.76;nan
19108;BME280;9686;48.832;9.126;2023-06-22T08:06:25;98022.97;;;25.80;nan
19108;BME280;9686;48.832;9.126;2023-06-22T08:08:50;98037.72;;;25.73;nan
19108;BME280;9686;48.832;9.126;2023-06-22T08:11:18;98047.00;;;26.05;nan
19108;BME280;9686;48.832;9.126;2023-06-22T08:13:44;98040.13;;;26.01;nan
19108;BME280;9686;48.832;9.126;2023-06-22T08:16:09;98029.94;;;26.19;nan
19108;BME280;9686;48.832;9.126;2023-06-22T08:18:35;98042.88;;;26.38;nan
19108;BME280;9686;48.832;9.126;2023-06-22T08:21:00;98047.31;;;26.50;nan
19108;BME280;9686;48.832;9.126;2023-06-22T08:23:26;98047.84;;;26.55;nan
19108;BME280;9686;48.832;9.126;2023-06-22T08:25:51;98036.69;;;26.61;nan
19108;BME280;9686;48.832;9.126;2023-06-22T08:28:16;98048.91;;;26.77;nan
19108;BME280;9686;48.832;9.126;2023-06-22T08:30:42;98048.34;;;26.60;nan
19108;BME280;9686;48.832;9.126;2023-06-22T08:33:07;98049.59;;;26.91;nan
19108;BME280;9686;48.832;9.126;2023-06-22T08:35:32;98057.13;;;26.86;nan
19108;BME280;9686;48.832;9.126;2023-06-22T08:37:57;98050.41;;;26.81;nan
19108;BME280;9686;48.832;9.126;2023-06-22T08:40:25;98047.00;;;27.02;nan
19108;BME280;9686;48.832;9.126;2023-06-22T08:42:50;98047.22;;;26.99;nan
19108;BME280;9686;48.832;9.126;2023-06-22T08:45:16;98037.44;;;26.87;nan
19108;BME280;9686;48.832;9.126;2023-06-22T08:47:42;98037.59;;;26.73;nan
19108;BME280;9686;48.832;9.126;2023-06-22T08:50:11;98032.44;;;26.83;nan
19108;BME280;9686;48.832;9.126;2023-06-22T08:52:37;98038.75;;;26.82;nan
19108;BME280;9686;48.832;9.126;2023-06-22T08:55:04;98032.56;;;26.92;nan
19108;BME280;9686;48.832;9.126;2023-06-22T08:57:29;98062.50;;;27.10;nan
19108;BME280;9686;48.832;9.126;2023-06-22T08:59:55;98026.84;;;28.23;nan
19108;BME280;9686;48.832;9.126;2023-06-22T09:02:24;98035.38;;;28.50;nan
19108;BME280;9686;48.832;9.126;2023-06-22T09:04:49;98026.78;;;28.68;nan
19108;BME280;9686;48.832;9.126;2023-06-22T09:07:20;98026.13;;;28.43;nan
19108;BME280;9686;48.832;9.126;2023-06-22T09:09:48;98024.19;;;28.34;nan
19108;BME280;9686;48.832;9.126;2023-06-22T09:12:13;98039.75;;;28.51;nan
19108;BME280;9686;48.832;9.126;2023-06-22T09:14:38;98057.34;;;28.44;nan
19108;BME280;9686;48.832;9.126;2023-06-22T09:17:04;98050.81;;;28.58;nan
19108;BME280;9686;48.832;9.126;2023-06-22T09:19:29;98033.69;;;28.38;nan
19108;BME280;9686;48.832;9.126;2023-06-22T09:21:54;98038.81;;;28.41;nan
19108;BME280;9686;48.832;9.126;2023-06-22T09:24:20;98029.59;;;28.66;nan
19108;BME280;9686;48.832;9.126;2023-06-22T09:26:45;98016.72;;;28.49;nan
19108;BME280;9686;48.832;9.126;2023-06-22T09:29:10;98017.84;;;28.90;nan
19108;BME280;9686;48.832;9.126;2023-06-22T09:31:36;98002.81;;;28.87;nan
19108;BME280;9686;48.832;9.126;2023-06-22T09:34:01;97995.25;;;28.92;nan
19108;BME280;9686;48.832;9.126;2023-06-22T09:36:26;97984.19;;;29.06;nan
19108;BME280;9686;48.832;9.126;2023-06-22T09:38:51;97984.72;;;29.21;nan
19108;BME280;9686;48.832;9.126;2023-06-22T09:41:21;97997.31;;;29.41;nan
19108;BME280;9686;48.832;9.126;2023-06-22T09:43:47;97981.91;;;29.43;nan
19108;BME280;9686;48.832;9.126;2023-06-22T09:46:15;97971.91;;;29.45;nan
19108;BME280;9686;48.832;9.126;2023-06-22T09:48:40;97967.22;;;29.68;nan
19108;BME280;9686;48.832;9.126;2023-06-22T09:51:05;97955.16;;;29.93;nan
19108;BME280;9686;48.832;9.126;2023-06-22T09:53:31;97943.03;;;30.18;nan
19108;BME280;9686;48.832;9.126;2023-06-22T09:55:56;97945.78;;;30.37;nan
19108;BME280;9686;48.832;9.126;2023-06-22T09:58:22;97935.28;;;30.25;nan
19108;BME280;9686;48.832;9.126;2023-06-22T10:00:47;97943.50;;;30.43;nan
19108;BME280;9686;48.832;9.126;2023-06-22T10:03:13;97931.81;;;30.63;nan
19108;BME280;9686;48.832;9.126;2023-06-22T10:05:38;97936.75;;;30.67;nan
19108;BME280;9686;48.832;9.126;2023-06-22T10:08:03;97939.88;;;31.02;nan
19108;BME280;9686;48.832;9.126;2023-06-22T10:10:28;97939.84;;;31.11;nan
19108;BME280;9686;48.832;9.126;2023-06-22T10:12:55;97938.44;;;31.07;nan
19108;BME280;9686;48.832;9.126;2023-06-22T10:15:21;97936.59;;;31.27;nan
19108;BME280;9686;48.832;9.126;2023-06-22T10:17:47;97911.78;;;31.04;nan
19108;BME280;9686;48.832;9.126;2023-06-22T10:20:13;97917.75;;;31.08;nan
19108;BME280;9686;48.832;9.126;2023-06-22T10:22:40;97920.97;;;31.31;nan
19108;BME280;9686;48.832;9.126;2023-06-22T10:25:06;97934.69;;;31.37;nan
19108;BME280;9686;48.832;9.126;2023-06-22T10:27:31;97928.28;;;31.48;nan
19108;BME280;9686;48.832;9.126;2023-06-22T10:29:57;97912.63;;;31.61;nan
19108;BME280;9686;48.832;9.126;2023-06-22T10:32:22;97913.47;;;31.62;nan
19108;BME280;9686;48.832;9.126;2023-06-22T10:34:48;97911.72;;;31.70;nan
19108;BME280;9686;48.832;9.126;2023-06-22T10:37:13;97910.28;;;31.85;nan
19108;BME280;9686;48.832;9.126;2023-06-22T10:39:38;97905.44;;;31.89;nan
19108;BME280;9686;48.832;9.126;2023-06-22T10:42:04;97909.63;;;32.19;nan
19108;BME280;9686;48.832;9.126;2023-06-22T10:44:29;97902.69;;;32.16;nan
19108;BME280;9686;48.832;9.126;2023-06-22T10:46:54;97893.53;;;32.09;nan
19108;BME280;9686;48.832;9.126;2023-06-22T10:49:20;97891.06;;;32.16;nan
19108;BME280;9686;48.832;9.126;2023-06-22T10:51:45;97887.59;;;32.24;nan
19108;BME280;9686;48.832;9.126;2023-06-22T10:54:10;97880.03;;;32.55;nan
19108;BME280;9686;48.832;9.126;2023-06-22T10:56:38;97894.41;;;32.45;nan
19108;BME280;9686;48.832;9.126;2023-06-22T10:59:04;97892.25;;;32.49;nan
19108;BME280;9686;48.832;9.126;2023-06-22T11:01:29;97884.47;;;32.46;nan
19108;BME280;9686;48.832;9.126;2023-06-22T11:03:56;97896.50;;;32.51;nan
19108;BME280;9686;48.832;9.126;2023-06-22T11:06:21;97891.72;;;32.63;nan
19108;BME280;9686;48.832;9.126;2023-06-22T11:08:46;97889.34;;;32.60;nan
19108;BME280;9686;48.832;9.126;2023-06-22T11:11:12;97891.88;;;32.62;nan
19108;BME280;9686;48.832;9.126;2023-06-22T11:13:37;97891.88;;;32.62;nan
19108;BME280;9686;48.832;9.126;2023-06-22T11:16:03;97884.16;;;32.85;nan
19108;BME280;9686;48.832;9.126;2023-06-22T11:18:28;97885.53;;;32.71;nan
19108;BME280;9686;48.832;9.126;2023-06-22T11:20:54;97891.88;;;32.62;nan
19108;BME280;9686;48.832;9.126;2023-06-22T11:23:19;97887.66;;;32.59;nan
19108;BME280;9686;48.832;9.126;2023-06-22T11:25:44;97893.19;;;32.40;nan
19108;BME280;9686;48.832;9.126;2023-06-22T11:28:11;97892.94;;;32.51;nan
19108;BME280;9686;48.832;9.126;2023-06-22T11:30:36;97891.34;;;32.40;nan
19108;BME280;9686;48.832;9.126;2023-06-22T11:33:01;97886.47;;;32.44;nan
19108;BME280;9686;48.832;9.126;2023-06-22T11:35:27;97881.59;;;32.12;nan
19108;BME280;9686;48.832;9.126;2023-06-22T11:37:52;97872.78;;;32.10;nan
19108;BME280;9686;48.832;9.126;2023-06-22T11:40:17;97858.13;;;31.95;nan
19108;BME280;9686;48.832;9.126;2023-06-22T11:42:43;97871.88;;;32.01;nan
19108;BME280;9686;48.832;9.126;2023-06-22T11:45:09;97878.19;;;32.10;nan
19108;BME280;9686;48.832;9.126;2023-06-22T11:47:34;97885.66;;;32.16;nan
19108;BME280;9686;48.832;9.126;2023-06-22T11:50:00;97870.94;;;32.10;nan
19108;BME280;9686;48.832;9.126;2023-06-22T11:52:25;97863.09;;;32.17;nan
19108;BME280;9686;48.832;9.126;2023-06-22T11:54:52;97876.19;;;32.12;nan
19108;BME280;9686;48.832;9.126;2023-06-22T11:57:17;97868.88;;;32.04;nan
19108;BME280;9686;48.832;9.126;2023-06-22T11:59:43;97861.09;;;32.01;nan
19108;BME280;9686;48.832;9.126;2023-06-22T12:02:08;97868.53;;;31.89;nan
19108;BME280;9686;48.832;9.126;2023-06-22T12:04:34;97868.44;;;31.81;nan
19108;BME280;9686;48.832;9.126;2023-06-22T12:07:00;97886.78;;;31.78;nan
19108;BME280;9686;48.832;9.126;2023-06-22T12:09:25;97898.25;;;31.70;nan
19108;BME280;9686;48.832;9.126;2023-06-22T12:11:50;97897.16;;;31.63;nan
19108;BME280;9686;48.832;9.126;2023-06-22T12:14:16;97895.56;;;31.70;nan
19108;BME280;9686;48.832;9.126;2023-06-22T12:16:41;97889.03;;;31.73;nan
19108;BME280;9686;48.832;9.126;2023-06-22T12:19:07;97885.38;;;31.64;nan
19108;BME280;9686;48.832;9.126;2023-06-22T12:21:32;97886.19;;;31.74;nan
19108;BME280;9686;48.832;9.126;2023-06-22T12:23:57;97883.06;;;31.79;nan
19108;BME280;9686;48.832;9.126;2023-06-22T12:26:23;97888.31;;;31.80;nan
19108;BME280;9686;48.832;9.126;2023-06-22T12:28:48;97883.94;;;31.79;nan
19108;BME280;9686;48.832;9.126;2023-06-22T12:31:14;97889.47;;;31.78;nan
19108;BME280;9686;48.832;9.126;2023-06-22T12:33:39;97888.16;;;31.82;nan
19108;BME280;9686;48.832;9.126;2023-06-22T12:36:04;97878.97;;;32.02;nan
19108;BME280;9686;48.832;9.126;2023-06-22T12:38:30;97885.63;;;31.98;nan
19108;BME280;9686;48.832;9.126;2023-06-22T12:40:55;97891.03;;;31.98;nan
19108;BME280;9686;48.832;9.126;2023-06-22T12:43:23;97898.56;;;31.95;nan
19108;BME280;9686;48.832;9.126;2023-06-22T12:45:49;97887.47;;;31.98;nan
19108;BME280;9686;48.832;9.126;2023-06-22T12:48:14;97891.34;;;31.95;nan
19108;BME280;9686;48.832;9.126;2023-06-22T12:50:39;97890.28;;;32.06;nan
19108;BME280;9686;48.832;9.126;2023-06-22T12:53:04;97900.22;;;32.05;nan
19108;BME280;9686;48.832;9.126;2023-06-22T12:55:32;97898.84;;;32.01;nan
19108;BME280;9686;48.832;9.126;2023-06-22T12:57:57;97900.56;;;31.93;nan
19108;BME280;9686;48.832;9.126;2023-06-22T13:00:23;97909.59;;;31.83;nan
19108;BME280;9686;48.832;9.126;2023-06-22T13:02:48;97913.13;;;31.84;nan
19108;BME280;9686;48.832;9.126;2023-06-22T13:05:13;97914.16;;;31.73;nan
19108;BME280;9686;48.832;9.126;2023-06-22T13:07:39;97907.50;;;31.68;nan
19108;BME280;9686;48.832;9.126;2023-06-22T13:10:04;97909.09;;;31.60;nan
19108;BME280;9686;48.832;9.126;2023-06-22T13:12:30;97898.34;;;31.51;nan
19108;BME280;9686;48.832;9.126;2023-06-22T13:14:55;97901.06;;;31.41;nan
19108;BME280;9686;48.832;9.126;2023-06-22T13:17:20;97894.69;;;31.42;nan
19108;BME280;9686;48.832;9.126;2023-06-22T13:19:46;97900.53;;;31.38;nan
19108;BME280;9686;48.832;9.126;2023-06-22T13:22:30;97880.66;;;31.39;nan
19108;BME280;9686;48.832;9.126;2023-06-22T13:24:57;97892.75;;;31.35;nan
19108;BME280;9686;48.832;9.126;2023-06-22T13:27:23;97875.44;;;31.37;nan
19108;BME280;9686;48.832;9.126;2023-06-22T13:29:48;97871.41;;;31.51;nan
19108;BME280;9686;48.832;9.126;2023-06-22T13:32:14;97860.03;;;31.57;nan